Meteo Giornale » Osservazioni meteo Stati Uniti (USA) » Minot
ore: 14:55 - Osservazioni Meteo Minot
Lat. 48° 25' N Lon. 101° 21' W Alt. 508 metri s.l.m.
26 °C
Molto Nuvoloso
Temp. 24 Ore
13 °C
26 °C
Ovest
53.7 Km/h
Dew point 10 °C
Umidità 36 %
Visibilità 10 Km
Il sole sorge alle ore 07:01
Il sole tramonta alle ore 20:29
| Data e Ora | Cielo e Fenomeni | T °C | DP °C | Um. % | Pres. hPa | Vis. km | Vento km/h | |
|---|---|---|---|---|---|---|---|---|
| Oggi h: 14:55 | Molto Nuvoloso | 26 | 10 | 36 | 1004 | 10 | O 53.7 | |
| Oggi h: 13:55 | Poco Nuvoloso | 26 | 10 | 36 | 1004 | 10 | O 46.3 | |
| Oggi h: 12:55 | Poco Nuvoloso | 25 | 10 | 38 | 1004 | 10 | O 46.3 | |
| Oggi h: 11:55 | Poco Nuvoloso | 23 | 9 | 40 | 1005 | 10 | O 48.1 | |
| Oggi h: 10:55 | Sereno | 20 | 9 | 49 | 1005 | 10 | O/SO 35.2 | |
| Oggi h: 09:55 | Sereno | 18 | 10 | 59 | 1006 | 10 | O/SO 29.6 | |
| Oggi h: 08:55 | Sereno | 16 | 11 | 72 | 1007 | 10 | O/SO 22.2 | |
| Oggi h: 07:55 | Sereno | 13 | 11 | 87 | 1007 | 10 | SO 18.5 | |
| Oggi h: 06:55 | Sereno | 13 | 11 | 87 | 1006 | 10 | S/SO 13 | |
| Oggi h: 05:55 | Sereno | 13 | 11 | 87 | 1006 | 10 | S/SO 14.8 | |
| Oggi h: 04:55 | Sereno | 14 | 11 | 82 | 1006 | 10 | SO 16.7 | |
| Oggi h: 03:55 | Sereno | 13 | 12 | 93 | 1006 | 10 | O/SO 13 | |
| Oggi h: 02:55 | Sereno | 14 | 12 | 87 | 1006 | 10 | O 13 | |
| Oggi h: 01:55 | Sereno | 14 | 13 | 93 | 1006 | 10 | O/SO 11.1 | |
| Oggi h: 00:55 | Sereno | 15 | 13 | 87 | 1006 | 10 | O 13 | |
| Ieri h: 23:55 | Sereno | 16 | 14 | 87 | 1006 | 10 | O 16.7 | |
| Ieri h: 22:55 | Poco Nuvoloso | 17 | 16 | 93 | 1006 | 10 | O 16.7 | |
| Ieri h: 21:55 | Nuvoloso | 19 | 17 | 88 | 1006 | 10 | N 5.5 | |
| Ieri h: 21:23 | Nuvoloso | 19 | 17 | 88 | 1005 | 10 | N 11.1 | |
| Ieri h: 20:59 | Pioggia | 19 | 17 | 88 | 1006 | 10 | O/NO 18.5 | |
| Ieri h: 20:55 | Coperto | 19 | 17 | 88 | 1006 | 10 | NO 18.5 | |
| Ieri h: 20:02 | Coperto | 19 | 17 | 88 | 1006 | 11 | N 5.5 | |
| Ieri h: 19:55 | Temporale nelle vicinanze Pioggia | 19 | 17 | 88 | 1006 | 13 | O 9.3 | |
| Ieri h: 19:34 | Temporale | 19 | 17 | 88 | 1005 | 8 | O 16.7 | |
| Ieri h: 19:26 | Temporale nelle vicinanze | 18 | 17 | 93 | 1005 | 10 | O/SO 18.5 | |
| Ieri h: 18:55 | Temporale | 18 | 17 | 93 | 1004 | 10 | SO 11.1 | |
| Ieri h: 18:36 | Temporale | 18 | 16 | 88 | 1005 | 8 | S/SO 16.7 | |
| Ieri h: 18:26 | Temporale | 23 | 16 | 64 | 1004 | 10 | O 40.7 | |
| Ieri h: 18:22 | Temporale | 24 | 19 | 73 | 1004 | 14 | O 38.8 | |
| Ieri h: 18:20 | Temporale | 24 | 20 | 78 | 1004 | 14 | O 31.5 | |
| Ieri h: 17:55 | Molto Nuvoloso | 25 | 20 | 73 | 1004 | 10 | S/SE 16.7 | |
| Ieri h: 16:55 | Poco Nuvoloso | 26 | 19 | 65 | 1003 | 10 | S/SE 22.2 | |



